sensor_id;sensor_type;location;lat;lon;timestamp;P1;durP1;ratioP1;P2;durP2;ratioP2
38779;SDS011;29273;49.962;9.768;2023-04-01T00:00:16;2.63;;;0.70;;
38779;SDS011;29273;49.962;9.768;2023-04-01T00:02:42;1.38;;;0.57;;
38779;SDS011;29273;49.962;9.768;2023-04-01T00:05:08;1.00;;;0.55;;
38779;SDS011;29273;49.962;9.768;2023-04-01T00:07:35;1.10;;;0.50;;
38779;SDS011;29273;49.962;9.768;2023-04-01T00:10:02;1.25;;;0.50;;
38779;SDS011;29273;49.962;9.768;2023-04-01T00:12:29;0.98;;;0.60;;
38779;SDS011;29273;49.962;9.768;2023-04-01T00:14:54;0.98;;;0.43;;
38779;SDS011;29273;49.962;9.768;2023-04-01T00:17:20;1.00;;;0.60;;
38779;SDS011;29273;49.962;9.768;2023-04-01T00:19:46;1.40;;;0.50;;
38779;SDS011;29273;49.962;9.768;2023-04-01T00:22:12;0.93;;;0.40;;
38779;SDS011;29273;49.962;9.768;2023-04-01T00:24:37;2.08;;;0.60;;
38779;SDS011;29273;49.962;9.768;2023-04-01T00:27:03;1.00;;;0.57;;
38779;SDS011;29273;49.962;9.768;2023-04-01T00:29:30;2.30;;;0.45;;
38779;SDS011;29273;49.962;9.768;2023-04-01T00:31:58;0.40;;;0.30;;
38779;SDS011;29273;49.962;9.768;2023-04-01T00:34:24;0.93;;;0.40;;
38779;SDS011;29273;49.962;9.768;2023-04-01T00:36:51;1.67;;;0.45;;
38779;SDS011;29273;49.962;9.768;2023-04-01T00:39:17;1.17;;;0.40;;
38779;SDS011;29273;49.962;9.768;2023-04-01T00:41:43;1.83;;;0.77;;
38779;SDS011;29273;49.962;9.768;2023-04-01T00:46:46;0.93;;;0.40;;
38779;SDS011;29273;49.962;9.768;2023-04-01T00:49:12;1.40;;;0.45;;
38779;SDS011;29273;49.962;9.768;2023-04-01T00:51:38;1.38;;;0.63;;
38779;SDS011;29273;49.962;9.768;2023-04-01T00:54:05;2.15;;;0.60;;
38779;SDS011;29273;49.962;9.768;2023-04-01T00:56:36;2.10;;;0.60;;
38779;SDS011;29273;49.962;9.768;2023-04-01T00:59:13;1.35;;;0.52;;
38779;SDS011;29273;49.962;9.768;2023-04-01T01:01:41;0.88;;;0.40;;
38779;SDS011;29273;49.962;9.768;2023-04-01T01:04:06;1.52;;;0.60;;
38779;SDS011;29273;49.962;9.768;2023-04-01T01:06:40;1.63;;;0.50;;
38779;SDS011;29273;49.962;9.768;2023-04-01T01:09:25;0.95;;;0.40;;
38779;SDS011;29273;49.962;9.768;2023-04-01T01:12:01;1.98;;;0.70;;
38779;SDS011;29273;49.962;9.768;2023-04-01T01:14:55;1.25;;;0.60;;
38779;SDS011;29273;49.962;9.768;2023-04-01T01:17:38;2.05;;;0.55;;
38779;SDS011;29273;49.962;9.768;2023-04-01T01:25:47;1.00;;;0.38;;
38779;SDS011;29273;49.962;9.768;2023-04-01T01:33:59;2.33;;;0.70;;
38779;SDS011;29273;49.962;9.768;2023-04-01T01:36:26;1.60;;;0.63;;
38779;SDS011;29273;49.962;9.768;2023-04-01T01:38:58;2.42;;;0.43;;
38779;SDS011;29273;49.962;9.768;2023-04-01T01:41:24;0.82;;;0.50;;
38779;SDS011;29273;49.962;9.768;2023-04-01T01:43:51;0.88;;;0.50;;
38779;SDS011;29273;49.962;9.768;2023-04-01T01:46:22;1.17;;;0.45;;
38779;SDS011;29273;49.962;9.768;2023-04-01T01:48:51;0.93;;;0.45;;
38779;SDS011;29273;49.962;9.768;2023-04-01T01:51:18;1.85;;;0.75;;
38779;SDS011;29273;49.962;9.768;2023-04-01T01:53:45;2.40;;;0.60;;
38779;SDS011;29273;49.962;9.768;2023-04-01T01:56:13;1.50;;;0.65;;
38779;SDS011;29273;49.962;9.768;2023-04-01T01:58:42;2.03;;;0.60;;
38779;SDS011;29273;49.962;9.768;2023-04-01T02:01:20;1.33;;;0.50;;
38779;SDS011;29273;49.962;9.768;2023-04-01T02:03:51;1.10;;;0.55;;
38779;SDS011;29273;49.962;9.768;2023-04-01T02:06:20;1.50;;;0.50;;
38779;SDS011;29273;49.962;9.768;2023-04-01T02:08:53;1.02;;;0.57;;
38779;SDS011;29273;49.962;9.768;2023-04-01T02:11:29;1.65;;;0.60;;
38779;SDS011;29273;49.962;9.768;2023-04-01T02:14:05;1.88;;;0.50;;
38779;SDS011;29273;49.962;9.768;2023-04-01T02:16:40;4.18;;;0.70;;
38779;SDS011;29273;49.962;9.768;2023-04-01T02:19:20;1.05;;;0.50;;
38779;SDS011;29273;49.962;9.768;2023-04-01T02:21:52;1.52;;;0.60;;
38779;SDS011;29273;49.962;9.768;2023-04-01T02:24:21;2.42;;;0.55;;
38779;SDS011;29273;49.962;9.768;2023-04-01T02:26:50;3.65;;;0.50;;
38779;SDS011;29273;49.962;9.768;2023-04-01T02:29:18;1.27;;;0.60;;
38779;SDS011;29273;49.962;9.768;2023-04-01T02:31:45;1.00;;;0.45;;
38779;SDS011;29273;49.962;9.768;2023-04-01T02:34:12;2.05;;;0.70;;
38779;SDS011;29273;49.962;9.768;2023-04-01T02:36:38;1.48;;;0.60;;
38779;SDS011;29273;49.962;9.768;2023-04-01T02:39:04;1.38;;;0.40;;
38779;SDS011;29273;49.962;9.768;2023-04-01T02:41:30;2.25;;;0.65;;
38779;SDS011;29273;49.962;9.768;2023-04-01T02:43:56;2.40;;;0.55;;
38779;SDS011;29273;49.962;9.768;2023-04-01T02:46:23;0.80;;;0.50;;
38779;SDS011;29273;49.962;9.768;2023-04-01T02:48:49;1.20;;;0.60;;
38779;SDS011;29273;49.962;9.768;2023-04-01T02:51:15;1.63;;;0.43;;
38779;SDS011;29273;49.962;9.768;2023-04-01T02:53:40;1.30;;;0.73;;
38779;SDS011;29273;49.962;9.768;2023-04-01T02:56:06;1.70;;;0.40;;
38779;SDS011;29273;49.962;9.768;2023-04-01T02:58:32;1.23;;;0.50;;
38779;SDS011;29273;49.962;9.768;2023-04-01T03:00:57;0.35;;;0.30;;
38779;SDS011;29273;49.962;9.768;2023-04-01T03:03:23;1.08;;;0.35;;
38779;SDS011;29273;49.962;9.768;2023-04-01T03:05:48;0.47;;;0.35;;
38779;SDS011;29273;49.962;9.768;2023-04-01T03:08:14;0.70;;;0.50;;
38779;SDS011;29273;49.962;9.768;2023-04-01T03:10:39;2.88;;;0.95;;
38779;SDS011;29273;49.962;9.768;2023-04-01T03:13:05;1.38;;;0.80;;
38779;SDS011;29273;49.962;9.768;2023-04-01T03:15:31;1.85;;;0.55;;
38779;SDS011;29273;49.962;9.768;2023-04-01T03:17:57;1.48;;;0.55;;
38779;SDS011;29273;49.962;9.768;2023-04-01T03:20:22;1.75;;;0.50;;
38779;SDS011;29273;49.962;9.768;2023-04-01T03:22:48;1.00;;;0.43;;
38779;SDS011;29273;49.962;9.768;2023-04-01T03:25:15;1.33;;;0.40;;
38779;SDS011;29273;49.962;9.768;2023-04-01T03:27:40;1.50;;;0.40;;
38779;SDS011;29273;49.962;9.768;2023-04-01T03:30:07;1.83;;;0.52;;
38779;SDS011;29273;49.962;9.768;2023-04-01T03:32:41;2.67;;;0.43;;
38779;SDS011;29273;49.962;9.768;2023-04-01T03:35:07;0.73;;;0.47;;
38779;SDS011;29273;49.962;9.768;2023-04-01T03:37:34;2.17;;;0.45;;
38779;SDS011;29273;49.962;9.768;2023-04-01T03:40:00;1.65;;;0.47;;
38779;SDS011;29273;49.962;9.768;2023-04-01T03:42:26;2.35;;;0.57;;
38779;SDS011;29273;49.962;9.768;2023-04-01T03:44:51;1.35;;;0.43;;
38779;SDS011;29273;49.962;9.768;2023-04-01T03:47:18;1.20;;;0.60;;
38779;SDS011;29273;49.962;9.768;2023-04-01T03:49:43;1.35;;;0.55;;
38779;SDS011;29273;49.962;9.768;2023-04-01T03:52:10;2.58;;;0.57;;
38779;SDS011;29273;49.962;9.768;2023-04-01T03:54:36;1.52;;;0.30;;
38779;SDS011;29273;49.962;9.768;2023-04-01T03:57:01;3.17;;;0.70;;
38779;SDS011;29273;49.962;9.768;2023-04-01T03:59:27;1.25;;;0.50;;
38779;SDS011;29273;49.962;9.768;2023-04-01T04:01:53;2.20;;;0.43;;
38779;SDS011;29273;49.962;9.768;2023-04-01T04:04:18;1.35;;;0.55;;
38779;SDS011;29273;49.962;9.768;2023-04-01T04:06:44;1.17;;;0.52;;
38779;SDS011;29273;49.962;9.768;2023-04-01T04:09:10;0.80;;;0.40;;
38779;SDS011;29273;49.962;9.768;2023-04-01T04:11:36;1.15;;;0.50;;
38779;SDS011;29273;49.962;9.768;2023-04-01T04:14:02;0.95;;;0.40;;
38779;SDS011;29273;49.962;9.768;2023-04-01T04:16:27;1.05;;;0.47;;
38779;SDS011;29273;49.962;9.768;2023-04-01T04:18:59;0.98;;;0.70;;
38779;SDS011;29273;49.962;9.768;2023-04-01T04:21:25;2.10;;;0.50;;
38779;SDS011;29273;49.962;9.768;2023-04-01T04:23:50;1.20;;;0.50;;
38779;SDS011;29273;49.962;9.768;2023-04-01T04:26:17;1.25;;;0.50;;
38779;SDS011;29273;49.962;9.768;2023-04-01T04:28:49;0.73;;;0.40;;
38779;SDS011;29273;49.962;9.768;2023-04-01T04:31:20;0.73;;;0.30;;
38779;SDS011;29273;49.962;9.768;2023-04-01T04:33:47;1.95;;;0.50;;
38779;SDS011;29273;49.962;9.768;2023-04-01T04:36:14;0.70;;;0.40;;
38779;SDS011;29273;49.962;9.768;2023-04-01T04:38:40;0.98;;;0.40;;
38779;SDS011;29273;49.962;9.768;2023-04-01T04:41:12;0.88;;;0.40;;
38779;SDS011;29273;49.962;9.768;2023-04-01T04:43:41;1.58;;;0.40;;
38779;SDS011;29273;49.962;9.768;2023-04-01T04:46:10;0.68;;;0.45;;
38779;SDS011;29273;49.962;9.768;2023-04-01T04:48:36;1.08;;;0.57;;
38779;SDS011;29273;49.962;9.768;2023-04-01T04:51:02;0.40;;;0.40;;
38779;SDS011;29273;49.962;9.768;2023-04-01T04:53:28;1.08;;;0.40;;
38779;SDS011;29273;49.962;9.768;2023-04-01T04:55:54;0.50;;;0.22;;
38779;SDS011;29273;49.962;9.768;2023-04-01T04:58:33;1.92;;;0.45;;
38779;SDS011;29273;49.962;9.768;2023-04-01T05:01:05;1.10;;;0.50;;
38779;SDS011;29273;49.962;9.768;2023-04-01T05:03:42;3.38;;;0.60;;
38779;SDS011;29273;49.962;9.768;2023-04-01T05:06:08;1.95;;;0.47;;
38779;SDS011;29273;49.962;9.768;2023-04-01T05:08:34;1.30;;;0.55;;
38779;SDS011;29273;49.962;9.768;2023-04-01T05:11:01;1.08;;;0.32;;
38779;SDS011;29273;49.962;9.768;2023-04-01T05:13:28;0.43;;;0.30;;
38779;SDS011;29273;49.962;9.768;2023-04-01T05:15:54;0.85;;;0.35;;
38779;SDS011;29273;49.962;9.768;2023-04-01T05:18:19;0.43;;;0.30;;
38779;SDS011;29273;49.962;9.768;2023-04-01T05:20:49;0.52;;;0.20;;
38779;SDS011;29273;49.962;9.768;2023-04-01T05:23:17;0.70;;;0.40;;
38779;SDS011;29273;49.962;9.768;2023-04-01T05:25:43;1.25;;;0.38;;
38779;SDS011;29273;49.962;9.768;2023-04-01T05:28:10;0.82;;;0.30;;
38779;SDS011;29273;49.962;9.768;2023-04-01T05:30:39;2.17;;;0.63;;
38779;SDS011;29273;49.962;9.768;2023-04-01T05:33:23;1.00;;;0.43;;
38779;SDS011;29273;49.962;9.768;2023-04-01T05:35:49;2.85;;;0.32;;
38779;SDS011;29273;49.962;9.768;2023-04-01T05:38:15;0.70;;;0.40;;
38779;SDS011;29273;49.962;9.768;2023-04-01T05:40:40;1.55;;;0.40;;
38779;SDS011;29273;49.962;9.768;2023-04-01T05:43:06;1.05;;;0.60;;
38779;SDS011;29273;49.962;9.768;2023-04-01T05:45:32;0.63;;;0.20;;
38779;SDS011;29273;49.962;9.768;2023-04-01T05:48:17;1.63;;;0.57;;
38779;SDS011;29273;49.962;9.768;2023-04-01T05:50:43;0.93;;;0.30;;
38779;SDS011;29273;49.962;9.768;2023-04-01T05:53:10;0.55;;;0.30;;
38779;SDS011;29273;49.962;9.768;2023-04-01T05:55:36;1.23;;;0.38;;
38779;SDS011;29273;49.962;9.768;2023-04-01T05:58:02;0.63;;;0.32;;
38779;SDS011;29273;49.962;9.768;2023-04-01T06:00:29;0.45;;;0.40;;
38779;SDS011;29273;49.962;9.768;2023-04-01T06:03:00;1.08;;;0.45;;
38779;SDS011;29273;49.962;9.768;2023-04-01T06:05:29;1.35;;;0.73;;
38779;SDS011;29273;49.962;9.768;2023-04-01T06:08:05;2.38;;;0.70;;
38779;SDS011;29273;49.962;9.768;2023-04-01T06:10:48;1.67;;;0.52;;
38779;SDS011;29273;49.962;9.768;2023-04-01T06:16:40;1.92;;;0.47;;
38779;SDS011;29273;49.962;9.768;2023-04-01T06:19:36;0.50;;;0.45;;
38779;SDS011;29273;49.962;9.768;2023-04-01T06:22:09;0.75;;;0.60;;
38779;SDS011;29273;49.962;9.768;2023-04-01T06:25:02;0.60;;;0.32;;
38779;SDS011;29273;49.962;9.768;2023-04-01T06:30:42;1.08;;;0.40;;
38779;SDS011;29273;49.962;9.768;2023-04-01T06:33:30;1.02;;;0.35;;
38779;SDS011;29273;49.962;9.768;2023-04-01T06:39:02;0.55;;;0.30;;
38779;SDS011;29273;49.962;9.768;2023-04-01T06:44:16;0.70;;;0.30;;
38779;SDS011;29273;49.962;9.768;2023-04-01T06:50:38;0.82;;;0.30;;
38779;SDS011;29273;49.962;9.768;2023-04-01T06:56:25;1.17;;;0.40;;
38779;SDS011;29273;49.962;9.768;2023-04-01T07:01:45;0.73;;;0.40;;
38779;SDS011;29273;49.962;9.768;2023-04-01T07:04:33;0.90;;;0.27;;
38779;SDS011;29273;49.962;9.768;2023-04-01T07:09:52;1.55;;;0.40;;
38779;SDS011;29273;49.962;9.768;2023-04-01T07:12:47;1.27;;;0.40;;
38779;SDS011;29273;49.962;9.768;2023-04-01T07:15:43;1.90;;;0.60;;
38779;SDS011;29273;49.962;9.768;2023-04-01T07:18:40;1.23;;;0.50;;
38779;SDS011;29273;49.962;9.768;2023-04-01T07:21:10;0.70;;;0.30;;
38779;SDS011;29273;49.962;9.768;2023-04-01T07:24:13;1.30;;;0.40;;
38779;SDS011;29273;49.962;9.768;2023-04-01T07:26:56;0.60;;;0.28;;
38779;SDS011;29273;49.962;9.768;2023-04-01T07:29:26;0.40;;;0.20;;
38779;SDS011;29273;49.962;9.768;2023-04-01T07:37:30;1.45;;;0.50;;
38779;SDS011;29273;49.962;9.768;2023-04-01T07:51:32;0.20;;;0.20;;
38779;SDS011;29273;49.962;9.768;2023-04-01T07:57:22;0.68;;;0.40;;
38779;SDS011;29273;49.962;9.768;2023-04-01T08:00:02;1.08;;;0.47;;
38779;SDS011;29273;49.962;9.768;2023-04-01T08:11:30;0.73;;;0.40;;
38779;SDS011;29273;49.962;9.768;2023-04-01T08:14:37;0.50;;;0.40;;
38779;SDS011;29273;49.962;9.768;2023-04-01T08:20:14;0.75;;;0.30;;
38779;SDS011;29273;49.962;9.768;2023-04-01T08:22:51;1.35;;;0.50;;
38779;SDS011;29273;49.962;9.768;2023-04-01T08:25:28;1.08;;;0.32;;
38779;SDS011;29273;49.962;9.768;2023-04-01T08:27:57;0.90;;;0.35;;
38779;SDS011;29273;49.962;9.768;2023-04-01T08:33:15;0.40;;;0.30;;
38779;SDS011;29273;49.962;9.768;2023-04-01T08:35:56;0.22;;;0.20;;
38779;SDS011;29273;49.962;9.768;2023-04-01T08:38:29;0.80;;;0.30;;
38779;SDS011;29273;49.962;9.768;2023-04-01T08:40:59;1.30;;;0.50;;
38779;SDS011;29273;49.962;9.768;2023-04-01T08:43:52;0.22;;;0.20;;
38779;SDS011;29273;49.962;9.768;2023-04-01T08:55:15;0.57;;;0.35;;
38779;SDS011;29273;49.962;9.768;2023-04-01T09:01:13;0.75;;;0.40;;
38779;SDS011;29273;49.962;9.768;2023-04-01T09:23:54;0.57;;;0.35;;
38779;SDS011;29273;49.962;9.768;2023-04-01T09:26:34;0.50;;;0.30;;
38779;SDS011;29273;49.962;9.768;2023-04-01T09:40:37;0.50;;;0.40;;
38779;SDS011;29273;49.962;9.768;2023-04-01T09:46:11;0.38;;;0.20;;
38779;SDS011;29273;49.962;9.768;2023-04-01T10:16:48;0.40;;;0.20;;
38779;SDS011;29273;49.962;9.768;2023-04-01T10:22:50;0.35;;;0.20;;
38779;SDS011;29273;49.962;9.768;2023-04-01T10:34:32;0.47;;;0.10;;
38779;SDS011;29273;49.962;9.768;2023-04-01T10:37:27;0.20;;;0.20;;
38779;SDS011;29273;49.962;9.768;2023-04-01T10:40:03;0.20;;;0.20;;
38779;SDS011;29273;49.962;9.768;2023-04-01T10:43:46;0.20;;;0.20;;
38779;SDS011;29273;49.962;9.768;2023-04-01T10:52:01;0.38;;;0.20;;
38779;SDS011;29273;49.962;9.768;2023-04-01T10:55:35;0.52;;;0.20;;
38779;SDS011;29273;49.962;9.768;2023-04-01T10:58:36;0.52;;;0.20;;
38779;SDS011;29273;49.962;9.768;2023-04-01T11:01:49;0.40;;;0.20;;
38779;SDS011;29273;49.962;9.768;2023-04-01T11:07:54;0.22;;;0.20;;
38779;SDS011;29273;49.962;9.768;2023-04-01T11:13:39;0.43;;;0.20;;
38779;SDS011;29273;49.962;9.768;2023-04-01T11:18:55;0.47;;;0.20;;
38779;SDS011;29273;49.962;9.768;2023-04-01T11:33:30;0.13;;;0.13;;
38779;SDS011;29273;49.962;9.768;2023-04-01T11:36:05;0.10;;;0.10;;
38779;SDS011;29273;49.962;9.768;2023-04-01T11:42:08;0.45;;;0.20;;
38779;SDS011;29273;49.962;9.768;2023-04-01T11:45:10;1.17;;;0.20;;
38779;SDS011;29273;49.962;9.768;2023-04-01T11:47:52;0.20;;;0.10;;
38779;SDS011;29273;49.962;9.768;2023-04-01T11:50:29;0.32;;;0.10;;
38779;SDS011;29273;49.962;9.768;2023-04-01T11:53:15;0.10;;;0.10;;
38779;SDS011;29273;49.962;9.768;2023-04-01T12:01:46;1.55;;;0.20;;
38779;SDS011;29273;49.962;9.768;2023-04-01T12:07:21;0.13;;;0.13;;
38779;SDS011;29273;49.962;9.768;2023-04-01T12:29:33;0.32;;;0.25;;
38779;SDS011;29273;49.962;9.768;2023-04-01T12:40:17;0.17;;;0.13;;
38779;SDS011;29273;49.962;9.768;2023-04-01T12:42:59;0.30;;;0.20;;
38779;SDS011;29273;49.962;9.768;2023-04-01T12:45:45;0.20;;;0.20;;
38779;SDS011;29273;49.962;9.768;2023-04-01T12:48:45;0.30;;;0.20;;
38779;SDS011;29273;49.962;9.768;2023-04-01T12:51:46;0.45;;;0.30;;
38779;SDS011;29273;49.962;9.768;2023-04-01T12:59:54;0.30;;;0.20;;
38779;SDS011;29273;49.962;9.768;2023-04-01T13:02:49;0.25;;;0.20;;
38779;SDS011;29273;49.962;9.768;2023-04-01T13:08:07;0.22;;;0.20;;
38779;SDS011;29273;49.962;9.768;2023-04-01T13:10:44;0.20;;;0.20;;
38779;SDS011;29273;49.962;9.768;2023-04-01T13:16:17;0.20;;;0.20;;
38779;SDS011;29273;49.962;9.768;2023-04-01T13:24:24;0.57;;;0.30;;
38779;SDS011;29273;49.962;9.768;2023-04-01T13:27:00;0.20;;;0.20;;
38779;SDS011;29273;49.962;9.768;2023-04-01T13:29:36;0.20;;;0.20;;
38779;SDS011;29273;49.962;9.768;2023-04-01T13:48:41;0.20;;;0.20;;
38779;SDS011;29273;49.962;9.768;2023-04-01T13:51:25;0.20;;;0.20;;
38779;SDS011;29273;49.962;9.768;2023-04-01T13:57:01;0.20;;;0.20;;
38779;SDS011;29273;49.962;9.768;2023-04-01T13:59:48;0.20;;;0.20;;
38779;SDS011;29273;49.962;9.768;2023-04-01T14:08:15;0.20;;;0.20;;
38779;SDS011;29273;49.962;9.768;2023-04-01T14:22:25;0.47;;;0.28;;
38779;SDS011;29273;49.962;9.768;2023-04-01T14:50:17;0.63;;;0.32;;
38779;SDS011;29273;49.962;9.768;2023-04-01T14:52:49;0.30;;;0.25;;
38779;SDS011;29273;49.962;9.768;2023-04-01T14:58:19;0.20;;;0.20;;
38779;SDS011;29273;49.962;9.768;2023-04-01T15:00:59;0.63;;;0.25;;
38779;SDS011;29273;49.962;9.768;2023-04-01T15:34:44;0.40;;;0.30;;
38779;SDS011;29273;49.962;9.768;2023-04-01T15:37:39;0.52;;;0.32;;
38779;SDS011;29273;49.962;9.768;2023-04-01T15:51:32;0.90;;;0.50;;
38779;SDS011;29273;49.962;9.768;2023-04-01T15:57:32;1.42;;;0.50;;
38779;SDS011;29273;49.962;9.768;2023-04-01T16:02:46;0.60;;;0.50;;
38779;SDS011;29273;49.962;9.768;2023-04-01T16:18:33;0.35;;;0.30;;
38779;SDS011;29273;49.962;9.768;2023-04-01T16:21:02;0.30;;;0.30;;
38779;SDS011;29273;49.962;9.768;2023-04-01T16:23:40;0.30;;;0.30;;
38779;SDS011;29273;49.962;9.768;2023-04-01T16:31:51;0.50;;;0.40;;
38779;SDS011;29273;49.962;9.768;2023-04-01T16:37:19;0.38;;;0.30;;
38779;SDS011;29273;49.962;9.768;2023-04-01T16:42:51;0.47;;;0.38;;
38779;SDS011;29273;49.962;9.768;2023-04-01T16:45:35;0.25;;;0.25;;
38779;SDS011;29273;49.962;9.768;2023-04-01T16:50:48;0.30;;;0.30;;
38779;SDS011;29273;49.962;9.768;2023-04-01T17:01:27;0.30;;;0.20;;
38779;SDS011;29273;49.962;9.768;2023-04-01T17:04:07;0.60;;;0.40;;
38779;SDS011;29273;49.962;9.768;2023-04-01T17:06:53;0.47;;;0.30;;
38779;SDS011;29273;49.962;9.768;2023-04-01T17:09:32;1.52;;;0.32;;
38779;SDS011;29273;49.962;9.768;2023-04-01T17:17:49;0.22;;;0.20;;
38779;SDS011;29273;49.962;9.768;2023-04-01T17:22:54;0.45;;;0.30;;
38779;SDS011;29273;49.962;9.768;2023-04-01T17:30:54;0.45;;;0.40;;
38779;SDS011;29273;49.962;9.768;2023-04-01T17:33:40;0.30;;;0.30;;
38779;SDS011;29273;49.962;9.768;2023-04-01T17:36:16;0.98;;;0.47;;
38779;SDS011;29273;49.962;9.768;2023-04-01T17:53:27;0.35;;;0.30;;
38779;SDS011;29273;49.962;9.768;2023-04-01T17:55:54;0.30;;;0.30;;
38779;SDS011;29273;49.962;9.768;2023-04-01T18:06:22;0.30;;;0.30;;
38779;SDS011;29273;49.962;9.768;2023-04-01T18:08:59;0.40;;;0.40;;
38779;SDS011;29273;49.962;9.768;2023-04-01T18:16:58;0.30;;;0.20;;
38779;SDS011;29273;49.962;9.768;2023-04-01T18:19:47;0.98;;;0.30;;
38779;SDS011;29273;49.962;9.768;2023-04-01T18:22:28;0.47;;;0.30;;
38779;SDS011;29273;49.962;9.768;2023-04-01T18:31:09;0.35;;;0.30;;
38779;SDS011;29273;49.962;9.768;2023-04-01T18:39:17;1.02;;;0.43;;
38779;SDS011;29273;49.962;9.768;2023-04-01T18:47:14;0.38;;;0.30;;
38779;SDS011;29273;49.962;9.768;2023-04-01T18:50:00;0.50;;;0.40;;
38779;SDS011;29273;49.962;9.768;2023-04-01T18:52:37;1.27;;;0.50;;
38779;SDS011;29273;49.962;9.768;2023-04-01T18:57:46;0.80;;;0.40;;
38779;SDS011;29273;49.962;9.768;2023-04-01T19:00:22;0.98;;;0.50;;
38779;SDS011;29273;49.962;9.768;2023-04-01T19:05:31;0.50;;;0.50;;
38779;SDS011;29273;49.962;9.768;2023-04-01T19:08:18;0.75;;;0.60;;
38779;SDS011;29273;49.962;9.768;2023-04-01T19:10:59;0.88;;;0.40;;
38779;SDS011;29273;49.962;9.768;2023-04-01T19:13:45;0.77;;;0.60;;
38779;SDS011;29273;49.962;9.768;2023-04-01T19:16:26;0.57;;;0.40;;
38779;SDS011;29273;49.962;9.768;2023-04-01T19:30:16;1.08;;;0.40;;
38779;SDS011;29273;49.962;9.768;2023-04-01T19:38:14;0.30;;;0.20;;
38779;SDS011;29273;49.962;9.768;2023-04-01T19:43:22;0.20;;;0.20;;
38779;SDS011;29273;49.962;9.768;2023-04-01T19:54:26;0.30;;;0.30;;
38779;SDS011;29273;49.962;9.768;2023-04-01T19:57:01;0.30;;;0.30;;
38779;SDS011;29273;49.962;9.768;2023-04-01T20:04:54;0.52;;;0.30;;
38779;SDS011;29273;49.962;9.768;2023-04-01T20:07:26;0.47;;;0.47;;
38779;SDS011;29273;49.962;9.768;2023-04-01T20:09:58;0.70;;;0.60;;
38779;SDS011;29273;49.962;9.768;2023-04-01T20:12:47;0.50;;;0.50;;
38779;SDS011;29273;49.962;9.768;2023-04-01T20:15:41;0.90;;;0.80;;
38779;SDS011;29273;49.962;9.768;2023-04-01T20:18:16;1.38;;;0.90;;
38779;SDS011;29273;49.962;9.768;2023-04-01T20:20:56;1.00;;;0.73;;
38779;SDS011;29273;49.962;9.768;2023-04-01T20:23:29;1.00;;;0.88;;
38779;SDS011;29273;49.962;9.768;2023-04-01T20:26:18;1.15;;;0.80;;
38779;SDS011;29273;49.962;9.768;2023-04-01T20:34:06;0.60;;;0.50;;
38779;SDS011;29273;49.962;9.768;2023-04-01T20:39:37;0.40;;;0.40;;
38779;SDS011;29273;49.962;9.768;2023-04-01T20:47:42;0.40;;;0.38;;
38779;SDS011;29273;49.962;9.768;2023-04-01T20:52:46;0.43;;;0.40;;
38779;SDS011;29273;49.962;9.768;2023-04-01T21:01:32;0.43;;;0.43;;
38779;SDS011;29273;49.962;9.768;2023-04-01T21:07:28;0.50;;;0.50;;
38779;SDS011;29273;49.962;9.768;2023-04-01T21:27:18;0.80;;;0.70;;
38779;SDS011;29273;49.962;9.768;2023-04-01T21:33:17;0.60;;;0.60;;
38779;SDS011;29273;49.962;9.768;2023-04-01T21:36:03;0.70;;;0.68;;
38779;SDS011;29273;49.962;9.768;2023-04-01T21:38:36;0.73;;;0.65;;
38779;SDS011;29273;49.962;9.768;2023-04-01T21:44:04;0.73;;;0.73;;
38779;SDS011;29273;49.962;9.768;2023-04-01T21:47:02;1.00;;;0.80;;
38779;SDS011;29273;49.962;9.768;2023-04-01T21:52:50;0.50;;;0.50;;
38779;SDS011;29273;49.962;9.768;2023-04-01T21:58:07;1.10;;;0.60;;
38779;SDS011;29273;49.962;9.768;2023-04-01T22:03:55;0.80;;;0.60;;
38779;SDS011;29273;49.962;9.768;2023-04-01T22:06:38;0.88;;;0.60;;
38779;SDS011;29273;49.962;9.768;2023-04-01T22:09:29;1.05;;;0.60;;
38779;SDS011;29273;49.962;9.768;2023-04-01T22:12:00;0.63;;;0.50;;
38779;SDS011;29273;49.962;9.768;2023-04-01T22:14:44;1.08;;;0.60;;
38779;SDS011;29273;49.962;9.768;2023-04-01T22:17:33;0.95;;;0.50;;
38779;SDS011;29273;49.962;9.768;2023-04-01T22:26:00;1.08;;;0.52;;
38779;SDS011;29273;49.962;9.768;2023-04-01T22:28:38;0.80;;;0.60;;
38779;SDS011;29273;49.962;9.768;2023-04-01T22:31:21;0.80;;;0.50;;
38779;SDS011;29273;49.962;9.768;2023-04-01T22:39:26;1.88;;;0.70;;
38779;SDS011;29273;49.962;9.768;2023-04-01T22:44:55;1.75;;;0.52;;
38779;SDS011;29273;49.962;9.768;2023-04-01T22:47:31;0.90;;;0.60;;
38779;SDS011;29273;49.962;9.768;2023-04-01T22:50:22;0.70;;;0.60;;
38779;SDS011;29273;49.962;9.768;2023-04-01T22:52:56;0.60;;;0.52;;
38779;SDS011;29273;49.962;9.768;2023-04-01T22:55:32;0.70;;;0.57;;
38779;SDS011;29273;49.962;9.768;2023-04-01T22:58:04;0.50;;;0.43;;
38779;SDS011;29273;49.962;9.768;2023-04-01T23:00:34;0.80;;;0.70;;
38779;SDS011;29273;49.962;9.768;2023-04-01T23:03:15;1.38;;;0.47;;
38779;SDS011;29273;49.962;9.768;2023-04-01T23:05:52;0.98;;;0.65;;
38779;SDS011;29273;49.962;9.768;2023-04-01T23:11:22;1.65;;;0.88;;
38779;SDS011;29273;49.962;9.768;2023-04-01T23:16:39;1.45;;;0.73;;
38779;SDS011;29273;49.962;9.768;2023-04-01T23:19:21;0.80;;;0.70;;
38779;SDS011;29273;49.962;9.768;2023-04-01T23:21:54;0.80;;;0.63;;
38779;SDS011;29273;49.962;9.768;2023-04-01T23:24:31;0.70;;;0.70;;
38779;SDS011;29273;49.962;9.768;2023-04-01T23:27:03;0.63;;;0.60;;
38779;SDS011;29273;49.962;9.768;2023-04-01T23:29:44;0.57;;;0.57;;
38779;SDS011;29273;49.962;9.768;2023-04-01T23:32:13;0.65;;;0.63;;
38779;SDS011;29273;49.962;9.768;2023-04-01T23:34:45;1.85;;;0.57;;
38779;SDS011;29273;49.962;9.768;2023-04-01T23:37:14;0.50;;;0.40;;
38779;SDS011;29273;49.962;9.768;2023-04-01T23:39:43;0.40;;;0.38;;
38779;SDS011;29273;49.962;9.768;2023-04-01T23:44:49;0.63;;;0.43;;
38779;SDS011;29273;49.962;9.768;2023-04-01T23:47:19;0.80;;;0.60;;
38779;SDS011;29273;49.962;9.768;2023-04-01T23:49:48;0.30;;;0.30;;
38779;SDS011;29273;49.962;9.768;2023-04-01T23:52:21;0.40;;;0.40;;
38779;SDS011;29273;49.962;9.768;2023-04-01T23:54:53;0.60;;;0.40;;
38779;SDS011;29273;49.962;9.768;2023-04-01T23:57:32;0.75;;;0.55;;
